Time;durP1;ratioP1;P1;durP2;ratioP2;P2;SDS_P1;SDS_P2;PMS_P1;PMS_P2;Temp;Humidity;BMP_temperature;BMP_pressure;BME280_temperature;BME280_humidity;BME280_pressure;Samples;Min_cycle;Max_cycle;Signal;HPM_P1;HPM_P2
2021/05/29 00:02:25;;;;;;;6.03;5.25;;;12.00;91.50;;;;;;6184116;23;20429;-66
2021/05/29 00:04:50;;;;;;;8.32;5.53;;;12.00;91.60;;;;;;6183171;23;20001;-66
2021/05/29 00:07:16;;;;;;;9.80;5.60;;;12.10;91.70;;;;;;6182440;23;20012;-68
2021/05/29 00:09:42;;;;;;;6.00;5.40;;;12.00;91.80;;;;;;6183012;23;20004;-65
2021/05/29 00:12:10;;;;;;;10.93;7.07;;;12.00;91.90;;;;;;6183422;23;20391;-63
2021/05/29 00:14:37;;;;;;;9.27;6.88;;;12.00;92.00;;;;;;6181759;23;20013;-69
2021/05/29 00:17:05;;;;;;;9.20;6.63;;;12.00;92.10;;;;;;6183445;23;20058;-66
2021/05/29 00:19:30;;;;;;;8.73;6.00;;;11.90;92.20;;;;;;6183369;23;20048;-66
2021/05/29 00:21:56;;;;;;;11.02;6.70;;;11.90;92.20;;;;;;6182694;23;20417;-67
2021/05/29 00:24:22;;;;;;;7.70;6.50;;;11.90;92.40;;;;;;6183363;23;20091;-67
2021/05/29 00:26:48;;;;;;;8.05;6.32;;;11.90;92.50;;;;;;6182682;23;20001;-65
2021/05/29 00:29:13;;;;;;;10.20;7.28;;;11.80;92.50;;;;;;6183602;23;20005;-69
2021/05/29 00:31:39;;;;;;;10.63;7.50;;;11.80;92.60;;;;;;6156599;23;20009;-69
2021/05/29 00:34:04;;;;;;;10.65;7.28;;;11.80;92.70;;;;;;6182263;23;20088;-69
2021/05/29 00:36:30;;;;;;;10.13;7.03;;;11.70;92.90;;;;;;6183530;23;19997;-62
2021/05/29 00:38:56;;;;;;;9.85;7.05;;;11.70;92.90;;;;;;6183026;23;20005;-63
2021/05/29 00:41:21;;;;;;;10.60;7.55;;;11.60;93.00;;;;;;6156376;23;20077;-69
2021/05/29 00:43:47;;;;;;;9.80;7.15;;;11.50;93.10;;;;;;6182722;23;20048;-64
2021/05/29 00:46:12;;;;;;;10.30;7.45;;;11.50;93.30;;;;;;6182936;23;20003;-63
2021/05/29 00:48:38;;;;;;;11.73;7.90;;;11.50;93.40;;;;;;6182190;23;20005;-64
2021/05/29 00:51:05;;;;;;;13.57;6.93;;;11.40;93.50;;;;;;6183220;23;20080;-64
2021/05/29 00:53:33;;;;;;;8.98;7.20;;;11.40;93.60;;;;;;6182738;23;20020;-65
2021/05/29 00:56:01;;;;;;;11.80;7.32;;;11.30;93.70;;;;;;6156096;23;20469;-64
2021/05/29 00:58:27;;;;;;;13.45;7.45;;;11.20;93.80;;;;;;6183370;23;20015;-63
2021/05/29 01:00:53;;;;;;;7.85;6.53;;;11.20;93.80;;;;;;6182455;23;20514;-63
2021/05/29 01:03:20;;;;;;;9.00;6.95;;;11.10;93.90;;;;;;6182520;23;20062;-64
2021/05/29 01:05:46;;;;;;;9.40;6.40;;;11.00;93.90;;;;;;6182843;23;20073;-66
2021/05/29 01:08:12;;;;;;;11.10;7.35;;;11.00;94.00;;;;;;6183055;23;20048;-63
2021/05/29 01:10:39;;;;;;;10.13;6.75;;;11.00;94.10;;;;;;6181704;23;20296;-64
2021/05/29 01:13:07;;;;;;;8.55;6.43;;;10.90;94.10;;;;;;6182803;23;20034;-62
2021/05/29 01:15:37;;;;;;;8.00;6.22;;;10.80;94.00;;;;;;6182439;23;20005;-63
2021/05/29 01:18:04;;;;;;;8.23;5.70;;;10.80;94.10;;;;;;6182066;23;20065;-64
2021/05/29 01:20:29;;;;;;;7.93;6.18;;;10.70;94.10;;;;;;6183252;23;20092;-63
2021/05/29 01:22:57;;;;;;;7.32;5.43;;;10.70;94.10;;;;;;6182497;23;20001;-65
2021/05/29 01:25:25;;;;;;;9.18;5.68;;;10.70;94.20;;;;;;6182093;23;20028;-62
2021/05/29 01:27:59;;;;;;;12.02;5.65;;;10.60;94.10;;;;;;6182536;23;20297;-63
2021/05/29 01:30:26;;;;;;;7.68;5.13;;;10.50;94.20;;;;;;6182294;23;20005;-65
2021/05/29 01:32:53;;;;;;;7.75;5.00;;;10.50;94.20;;;;;;6156242;23;19997;-63
2021/05/29 01:35:19;;;;;;;6.95;5.22;;;10.40;94.20;;;;;;6182024;23;20461;-63
2021/05/29 01:37:45;;;;;;;5.90;4.72;;;10.40;94.20;;;;;;6181827;23;19997;-63
2021/05/29 01:40:11;;;;;;;5.90;4.88;;;10.30;94.30;;;;;;6182761;23;20005;-64
2021/05/29 01:42:38;;;;;;;7.15;4.50;;;10.30;94.30;;;;;;6182490;23;20097;-64
2021/05/29 01:45:07;;;;;;;6.32;4.43;;;10.20;94.30;;;;;;6181759;23;19997;-67
2021/05/29 01:47:34;;;;;;;7.13;3.75;;;10.20;94.40;;;;;;6182634;23;20056;-67
2021/05/29 01:50:03;;;;;;;6.88;4.88;;;10.20;94.40;;;;;;6182885;23;19997;-67
2021/05/29 01:52:48;;;;;;;6.82;4.57;;;10.10;94.40;;;;;;6182283;23;20028;-62
2021/05/29 01:55:15;;;;;;;6.28;4.50;;;10.00;94.50;;;;;;6182563;23;20013;-62
2021/05/29 01:57:41;;;;;;;8.85;5.20;;;10.00;94.50;;;;;;6182444;23;20001;-62
2021/05/29 02:00:07;;;;;;;5.47;4.05;;;9.90;94.60;;;;;;6155595;23;20478;-62
2021/05/29 02:02:33;;;;;;;9.70;5.00;;;9.90;94.60;;;;;;6182428;23;20446;-63
2021/05/29 02:05:07;;;;;;;7.35;4.38;;;9.80;94.60;;;;;;6182549;23;20001;-64
2021/05/29 02:07:32;;;;;;;5.07;4.35;;;9.80;94.70;;;;;;6181564;23;20001;-63
2021/05/29 02:09:58;;;;;;;6.28;4.22;;;9.70;94.80;;;;;;6182832;23;20012;-69
2021/05/29 02:12:23;;;;;;;5.88;4.65;;;9.70;94.90;;;;;;6182208;23;20304;-68
2021/05/29 02:14:49;;;;;;;7.90;5.80;;;9.70;94.90;;;;;;6182014;23;20444;-67
2021/05/29 02:17:14;;;;;;;5.53;4.20;;;9.60;94.90;;;;;;6155892;23;20005;-68
2021/05/29 02:19:40;;;;;;;5.32;4.38;;;9.60;95.00;;;;;;6181452;23;20039;-69
2021/05/29 02:22:05;;;;;;;8.20;4.18;;;9.60;95.10;;;;;;6182269;23;20059;-68
2021/05/29 02:24:31;;;;;;;5.70;4.38;;;9.50;95.10;;;;;;6182242;23;20457;-63
2021/05/29 02:26:56;;;;;;;6.82;3.65;;;9.50;95.10;;;;;;6181884;23;20063;-67
2021/05/29 02:29:22;;;;;;;6.72;4.68;;;9.50;95.10;;;;;;6182704;23;20077;-67
2021/05/29 02:31:48;;;;;;;8.75;4.97;;;9.50;95.20;;;;;;6184260;23;20005;-67
2021/05/29 02:34:13;;;;;;;7.80;5.05;;;9.40;95.20;;;;;;6183465;23;20149;-68
2021/05/29 02:36:39;;;;;;;7.22;5.28;;;9.40;95.20;;;;;;6183630;23;20464;-69
2021/05/29 02:39:05;;;;;;;6.97;5.50;;;9.40;95.30;;;;;;6183706;23;20330;-67
2021/05/29 02:41:30;;;;;;;8.95;5.60;;;9.40;95.40;;;;;;6183560;23;20062;-63
2021/05/29 02:43:56;;;;;;;7.07;5.63;;;9.40;95.40;;;;;;6184089;23;20442;-69
2021/05/29 02:46:21;;;;;;;7.25;5.80;;;9.40;95.50;;;;;;6184655;23;20001;-69
2021/05/29 02:48:47;;;;;;;8.68;6.63;;;9.40;95.50;;;;;;6183221;23;20009;-64
2021/05/29 02:51:12;;;;;;;8.98;6.20;;;9.30;95.50;;;;;;6183726;23;20304;-65
2021/05/29 02:53:38;;;;;;;8.07;6.22;;;9.30;95.50;;;;;;6183698;23;20511;-67
2021/05/29 02:56:04;;;;;;;10.68;6.93;;;9.30;95.50;;;;;;6183353;23;20484;-70
2021/05/29 02:58:29;;;;;;;7.97;6.45;;;9.20;95.50;;;;;;6184391;23;20013;-70
2021/05/29 03:00:55;;;;;;;7.80;6.13;;;9.10;95.50;;;;;;6183868;23;20008;-66
2021/05/29 03:03:20;;;;;;;8.70;6.03;;;9.10;95.50;;;;;;6183560;23;20064;-66
2021/05/29 03:05:47;;;;;;;10.13;7.03;;;9.00;95.60;;;;;;6184015;23;20128;-63
2021/05/29 03:08:15;;;;;;;10.32;6.88;;;9.00;95.60;;;;;;6184100;23;20013;-62
2021/05/29 03:10:41;;;;;;;9.60;6.78;;;9.00;95.60;;;;;;6182855;23;20012;-62
2021/05/29 03:13:08;;;;;;;10.15;7.05;;;8.90;95.60;;;;;;6184107;23;20032;-67
2021/05/29 03:15:35;;;;;;;7.93;7.10;;;9.00;95.70;;;;;;6183665;23;20478;-64
2021/05/29 03:18:02;;;;;;;9.93;7.35;;;8.90;95.70;;;;;;6183447;23;20005;-62
2021/05/29 03:20:28;;;;;;;7.75;6.95;;;8.90;95.80;;;;;;6184351;23;20008;-62
2021/05/29 03:22:54;;;;;;;9.07;6.95;;;8.90;95.80;;;;;;6182796;23;20319;-66
2021/05/29 03:25:20;;;;;;;13.00;7.57;;;8.90;95.80;;;;;;6183616;23;20024;-65
2021/05/29 03:27:49;;;;;;;11.18;7.35;;;8.80;95.80;;;;;;6183579;23;20001;-63
2021/05/29 03:30:17;;;;;;;12.13;7.50;;;8.80;95.80;;;;;;6183039;23;20013;-62
2021/05/29 03:32:43;;;;;;;9.32;7.05;;;8.80;95.90;;;;;;6183582;23;20011;-63
2021/05/29 03:35:10;;;;;;;9.93;7.35;;;8.80;95.90;;;;;;6183877;23;20088;-62
2021/05/29 03:37:36;;;;;;;8.27;7.30;;;8.70;95.90;;;;;;6182561;23;20040;-64
2021/05/29 03:40:04;;;;;;;10.60;7.93;;;8.70;96.00;;;;;;6183570;23;20036;-62
2021/05/29 03:42:29;;;;;;;10.00;8.77;;;8.70;96.00;;;;;;6183437;23;20300;-63
2021/05/29 03:44:55;;;;;;;10.90;8.02;;;8.70;96.10;;;;;;6182334;23;20076;-62
2021/05/29 03:47:20;;;;;;;9.35;7.85;;;8.70;96.10;;;;;;6184132;23;20029;-63
2021/05/29 03:49:46;;;;;;;11.18;8.40;;;8.70;96.10;;;;;;6183419;23;20004;-63
2021/05/29 03:52:11;;;;;;;14.30;8.95;;;8.70;96.10;;;;;;6182828;23;20001;-62
2021/05/29 03:54:37;;;;;;;12.05;9.10;;;8.80;96.20;;;;;;6156712;23;20020;-64
2021/05/29 03:57:03;;;;;;;11.27;9.20;;;8.80;96.30;;;;;;6183390;23;20048;-62
2021/05/29 03:59:28;;;;;;;12.90;9.38;;;8.80;96.30;;;;;;6182823;23;20001;-62
2021/05/29 04:01:54;;;;;;;11.88;9.50;;;8.80;96.30;;;;;;6183424;23;19997;-62
2021/05/29 04:04:19;;;;;;;12.63;9.40;;;8.80;96.30;;;;;;6183917;23;20023;-62
2021/05/29 04:06:45;;;;;;;13.85;9.70;;;8.80;96.30;;;;;;6182592;23;20006;-62
2021/05/29 04:09:12;;;;;;;13.05;9.95;;;8.80;96.30;;;;;;6183478;23;20005;-63
2021/05/29 04:11:38;;;;;;;12.27;8.65;;;8.80;96.30;;;;;;6183341;23;20001;-69
2021/05/29 04:14:05;;;;;;;15.50;9.43;;;8.80;96.30;;;;;;6182313;23;20013;-66
2021/05/29 04:16:31;;;;;;;12.48;9.75;;;8.80;96.40;;;;;;6183566;23;20002;-67
2021/05/29 04:18:57;;;;;;;10.15;8.98;;;8.80;96.40;;;;;;6182773;23;20001;-69
2021/05/29 04:21:23;;;;;;;12.45;9.15;;;8.90;96.50;;;;;;6183989;23;20072;-65
2021/05/29 04:23:49;;;;;;;11.00;9.02;;;8.90;96.50;;;;;;6182826;23;20457;-65
2021/05/29 04:26:14;;;;;;;11.20;8.90;;;8.90;96.60;;;;;;6182382;23;20024;-67
2021/05/29 04:28:40;;;;;;;13.77;10.27;;;8.90;96.60;;;;;;6183209;23;20029;-64
2021/05/29 04:31:06;;;;;;;10.85;9.00;;;9.00;96.90;;;;;;6183454;23;19997;-66
2021/05/29 04:33:32;;;;;;;15.15;10.57;;;9.00;96.60;;;;;;6182064;23;20032;-66
2021/05/29 04:35:58;;;;;;;12.70;9.35;;;9.00;96.70;;;;;;6183578;23;20009;-67
2021/05/29 04:38:25;;;;;;;15.75;9.93;;;9.10;96.80;;;;;;6183793;23;20300;-66
2021/05/29 04:40:50;;;;;;;13.32;9.32;;;9.10;96.70;;;;;;6182056;23;20548;-67
2021/05/29 04:43:16;;;;;;;15.57;10.93;;;9.10;96.70;;;;;;6156830;23;20005;-65
2021/05/29 04:45:42;;;;;;;13.40;10.48;;;9.20;96.90;;;;;;6182767;23;20009;-67
2021/05/29 04:48:08;;;;;;;15.43;10.90;;;9.30;96.90;;;;;;6182471;23;20001;-68
2021/05/29 04:51:11;;;;;;;13.63;10.88;;;9.40;96.90;;;;;;6182884;23;20015;-70
2021/05/29 04:53:20;;;;;;;15.30;10.45;;;9.40;96.90;;;;;;6182684;23;20078;-66
2021/05/29 04:55:46;;;;;;;16.90;11.15;;;9.50;96.90;;;;;;6181844;23;20442;-67
2021/05/29 04:58:12;;;;;;;15.07;10.80;;;9.50;96.90;;;;;;6183182;23;20028;-65
2021/05/29 05:00:37;;;;;;;13.25;10.88;;;9.60;96.90;;;;;;6183009;23;20005;-68
2021/05/29 05:03:03;;;;;;;13.75;10.07;;;9.70;96.90;;;;;;6181986;23;20448;-68
2021/05/29 05:05:28;;;;;;;15.25;11.40;;;9.70;96.80;;;;;;6183441;23;20076;-63
2021/05/29 05:07:54;;;;;;;19.27;12.60;;;9.70;96.80;;;;;;6182893;23;20418;-68
2021/05/29 05:10:19;;;;;;;15.50;12.20;;;9.80;96.90;;;;;;6182205;23;20090;-68
2021/05/29 05:12:46;;;;;;;17.13;12.40;;;9.90;97.00;;;;;;6182864;23;19997;-66
2021/05/29 05:15:13;;;;;;;18.75;12.85;;;10.00;97.00;;;;;;6181978;23;20013;-67
2021/05/29 05:17:38;;;;;;;17.08;13.07;;;10.20;96.90;;;;;;6182838;23;20000;-65
2021/05/29 05:20:04;;;;;;;18.45;12.88;;;10.40;96.80;;;;;;6156526;23;20008;-69
2021/05/29 05:22:31;;;;;;;18.02;12.10;;;10.50;96.60;;;;;;6182297;23;20084;-65
2021/05/29 05:24:57;;;;;;;17.35;12.55;;;10.60;96.50;;;;;;6182534;23;20020;-63
2021/05/29 05:27:22;;;;;;;19.85;13.05;;;10.70;96.30;;;;;;6183055;23;20005;-62
2021/05/29 05:29:48;;;;;;;17.42;13.32;;;10.90;96.20;;;;;;6155468;23;20067;-67
2021/05/29 05:32:13;;;;;;;17.52;12.75;;;11.00;96.00;;;;;;6156474;23;20028;-64
2021/05/29 05:34:39;;;;;;;16.63;12.70;;;11.00;95.90;;;;;;6182506;23;20028;-64
2021/05/29 05:37:06;;;;;;;17.75;12.98;;;11.20;95.80;;;;;;6181816;23;20005;-66
2021/05/29 05:39:32;;;;;;;17.75;12.85;;;11.30;95.70;;;;;;6182524;23;20004;-62
2021/05/29 05:41:57;;;;;;;16.38;11.80;;;11.40;95.50;;;;;;6156497;23;20058;-62
2021/05/29 05:44:23;;;;;;;14.07;12.07;;;11.50;95.40;;;;;;6155838;23;20079;-62
2021/05/29 05:46:48;;;;;;;18.25;12.73;;;11.60;95.20;;;;;;6156011;23;20092;-64
2021/05/29 05:49:14;;;;;;;17.67;12.45;;;11.60;95.00;;;;;;6182824;23;20024;-68
2021/05/29 05:51:39;;;;;;;14.35;11.13;;;11.80;94.80;;;;;;6181588;23;20004;-66
2021/05/29 05:54:05;;;;;;;14.43;11.65;;;11.80;94.50;;;;;;6183250;23;20013;-69
2021/05/29 05:56:31;;;;;;;15.15;11.38;;;11.90;94.40;;;;;;6182573;23;20005;-67
2021/05/29 05:58:57;;;;;;;14.45;10.32;;;12.00;94.30;;;;;;6181889;23;20469;-68
2021/05/29 06:01:24;;;;;;;14.30;10.85;;;12.10;94.20;;;;;;6182391;23;20001;-63
2021/05/29 06:03:50;;;;;;;14.43;11.02;;;12.10;93.80;;;;;;6182494;23;20013;-67
2021/05/29 06:06:16;;;;;;;13.25;10.45;;;12.20;93.70;;;;;;6183729;23;20100;-63
2021/05/29 06:08:41;;;;;;;18.95;10.23;;;12.30;93.50;;;;;;6184549;23;20443;-62
2021/05/29 06:11:07;;;;;;;13.48;11.10;;;12.40;93.10;;;;;;6184536;23;20002;-62
2021/05/29 06:21:16;;;;;;;12.43;9.10;;;12.80;91.90;;;;;;6184634;23;20017;-65
2021/05/29 06:23:41;;;;;;;11.32;9.35;;;12.90;91.80;;;;;;6183685;23;20024;-63
2021/05/29 06:26:07;;;;;;;12.02;9.63;;;13.00;91.70;;;;;;6183601;23;20001;-64
2021/05/29 06:28:32;;;;;;;10.60;8.10;;;13.10;91.40;;;;;;6157757;23;20001;-62
2021/05/29 06:30:58;;;;;;;10.43;8.20;;;13.20;91.30;;;;;;6184132;23;20005;-61
2021/05/29 06:33:23;;;;;;;12.50;8.93;;;13.30;91.00;;;;;;6157136;23;20031;-63
2021/05/29 06:35:49;;;;;;;13.40;8.90;;;13.40;90.50;;;;;;6184129;23;20008;-62
2021/05/29 06:38:15;;;;;;;10.52;9.43;;;13.40;90.30;;;;;;6184162;23;20052;-65
2021/05/29 06:40:40;;;;;;;11.52;8.30;;;13.50;90.10;;;;;;6183343;23;20013;-63
2021/05/29 06:43:06;;;;;;;14.48;8.18;;;13.50;90.00;;;;;;6184357;23;20001;-65
2021/05/29 06:45:32;;;;;;;12.15;9.60;;;13.60;89.90;;;;;;6184038;23;20025;-66
2021/05/29 06:47:59;;;;;;;10.52;8.82;;;13.70;89.20;;;;;;6183229;23;19997;-67
2021/05/29 06:50:24;;;;;;;11.05;9.45;;;13.70;89.30;;;;;;6181445;23;20009;-65
2021/05/29 06:52:53;;;;;;;11.73;8.60;;;13.80;88.40;;;;;;6182850;23;20730;-67
2021/05/29 07:00:47;;;;;;;11.35;10.15;;;14.10;90.00;;;;;;6182671;23;20453;-64
2021/05/29 07:03:13;;;;;;;14.48;11.13;;;14.20;89.30;;;;;;6157482;23;20001;-62
2021/05/29 07:05:39;;;;;;;12.68;8.82;;;14.30;89.10;;;;;;6183034;23;20024;-64
2021/05/29 07:08:04;;;;;;;11.30;9.70;;;14.40;88.00;;;;;;6183319;23;20032;-64
2021/05/29 07:10:30;;;;;;;10.90;9.48;;;14.40;87.20;;;;;;6184095;23;20005;-63
2021/05/29 07:12:55;;;;;;;9.88;8.70;;;14.40;86.50;;;;;;6183808;23;20001;-62
2021/05/29 07:15:25;;;;;;;11.52;9.25;;;14.50;86.80;;;;;;6182384;23;20009;-64
2021/05/29 07:17:54;;;;;;;12.15;8.63;;;14.50;86.60;;;;;;6182862;23;20334;-72
2021/05/29 07:20:19;;;;;;;10.95;8.80;;;14.60;86.80;;;;;;6182949;23;20001;-67
2021/05/29 07:22:45;;;;;;;9.57;8.25;;;14.70;86.10;;;;;;6182700;23;20043;-70
2021/05/29 07:25:11;;;;;;;9.35;8.27;;;14.80;86.10;;;;;;6182949;23;20013;-63
2021/05/29 07:27:37;;;;;;;9.73;8.75;;;14.90;85.80;;;;;;6157003;23;20008;-64
2021/05/29 07:30:07;;;;;;;8.75;7.63;;;14.90;85.20;;;;;;6182741;23;20001;-63
2021/05/29 07:32:34;;;;;;;11.45;8.10;;;14.90;85.30;;;;;;6183431;23;20016;-63
2021/05/29 07:35:00;;;;;;;9.63;7.85;;;15.00;85.40;;;;;;6183384;23;20144;-66
2021/05/29 07:37:26;;;;;;;10.77;8.43;;;15.10;85.80;;;;;;6183170;23;20392;-65
2021/05/29 07:39:52;;;;;;;9.07;7.55;;;15.20;85.90;;;;;;6182846;23;20496;-70
2021/05/29 07:42:17;;;;;;;12.07;8.30;;;15.30;85.60;;;;;;6182556;23;19997;-63
2021/05/29 07:44:43;;;;;;;9.35;7.55;;;15.40;85.40;;;;;;6182238;23;20005;-67
2021/05/29 07:47:08;;;;;;;10.48;8.02;;;15.50;84.50;;;;;;6183718;23;20001;-70
2021/05/29 07:49:34;;;;;;;9.93;7.80;;;15.60;83.90;;;;;;6182487;23;20005;-69
2021/05/29 07:51:59;;;;;;;9.70;7.07;;;15.50;82.50;;;;;;6181881;23;20004;-68
2021/05/29 07:54:25;;;;;;;9.38;7.78;;;15.40;82.70;;;;;;6182877;23;20388;-68
2021/05/29 07:56:51;;;;;;;9.48;7.20;;;15.40;82.50;;;;;;6183158;23;20005;-65
2021/05/29 07:59:17;;;;;;;10.32;7.53;;;15.30;83.00;;;;;;6182210;23;20032;-62
2021/05/29 08:01:43;;;;;;;10.07;8.15;;;15.40;82.00;;;;;;6182779;23;20354;-65
2021/05/29 08:04:12;;;;;;;9.77;7.97;;;15.40;81.80;;;;;;6182470;23;20080;-65
2021/05/29 08:06:38;;;;;;;9.43;7.50;;;15.50;81.80;;;;;;6156630;23;20001;-65
2021/05/29 08:09:06;;;;;;;8.57;6.50;;;15.60;82.30;;;;;;6183459;23;20008;-62
2021/05/29 08:11:35;;;;;;;9.25;7.43;;;15.70;81.80;;;;;;6182438;23;20005;-63
2021/05/29 08:14:01;;;;;;;8.77;7.43;;;15.80;80.70;;;;;;6182797;23;20096;-65
2021/05/29 08:16:27;;;;;;;8.32;6.95;;;15.80;80.50;;;;;;6183325;23;20025;-64
2021/05/29 08:18:53;;;;;;;8.85;6.95;;;15.80;79.90;;;;;;6155411;23;20063;-63
2021/05/29 08:21:19;;;;;;;7.35;6.10;;;15.80;79.70;;;;;;6182957;23;20072;-65
2021/05/29 08:23:45;;;;;;;7.88;6.18;;;15.70;77.60;;;;;;6182508;23;19997;-63
2021/05/29 08:26:11;;;;;;;9.45;6.95;;;15.70;78.10;;;;;;6156410;23;20005;-65
2021/05/29 08:28:36;;;;;;;9.48;7.10;;;15.70;79.20;;;;;;6182772;23;20425;-67
2021/05/29 08:31:04;;;;;;;8.77;6.60;;;15.80;80.00;;;;;;6182722;23;20005;-66
2021/05/29 08:33:29;;;;;;;7.88;6.85;;;16.10;79.60;;;;;;6182349;23;20005;-71
2021/05/29 08:35:55;;;;;;;15.98;8.13;;;16.30;78.50;;;;;;6182749;23;20005;-68
2021/05/29 08:38:21;;;;;;;8.48;6.90;;;16.40;77.90;;;;;;6183336;23;20091;-68
2021/05/29 08:40:46;;;;;;;8.93;6.70;;;16.30;77.80;;;;;;6181891;23;20311;-65
2021/05/29 08:43:12;;;;;;;17.23;7.95;;;16.40;78.40;;;;;;6181877;23;20051;-69
2021/05/29 08:45:38;;;;;;;8.20;6.47;;;16.50;77.50;;;;;;6182642;23;20008;-72
2021/05/29 08:48:05;;;;;;;8.82;6.55;;;16.70;78.30;;;;;;6181334;23;20002;-66
2021/05/29 08:50:31;;;;;;;8.95;6.40;;;16.80;77.50;;;;;;6182692;23;20005;-65
2021/05/29 08:52:57;;;;;;;8.85;6.07;;;16.90;77.30;;;;;;6156064;23;20067;-69
2021/05/29 08:55:23;;;;;;;7.57;6.75;;;16.90;77.20;;;;;;6181742;23;20017;-68
2021/05/29 08:57:49;;;;;;;13.57;6.65;;;17.00;76.40;;;;;;6182748;23;20218;-69
2021/05/29 09:00:27;;;;;;;8.10;6.45;;;17.20;77.20;;;;;;6155725;23;20012;-67
2021/05/29 09:02:59;;;;;;;7.65;6.00;;;17.50;75.80;;;;;;6182389;23;20141;-70
2021/05/29 09:05:52;;;;;;;8.52;6.53;;;17.80;75.00;;;;;;6182591;23;20317;-70
2021/05/29 09:08:21;;;;;;;10.07;6.70;;;18.00;73.20;;;;;;6173026;23;20012;-66
2021/05/29 09:10:53;;;;;;;9.27;6.05;;;18.10;72.60;;;;;;6182401;23;20308;-70
2021/05/29 09:13:20;;;;;;;7.40;5.95;;;18.10;72.10;;;;;;6182264;23;20005;-64
2021/05/29 09:15:50;;;;;;;8.00;6.32;;;18.20;72.10;;;;;;6181524;23;20043;-63
2021/05/29 09:18:26;;;;;;;7.47;6.45;;;18.20;70.80;;;;;;6182573;23;20001;-64
2021/05/29 09:20:52;;;;;;;7.95;7.15;;;18.30;71.30;;;;;;6182177;23;20330;-69
2021/05/29 09:23:18;;;;;;;9.80;7.47;;;18.20;70.80;;;;;;6181505;23;20712;-65
2021/05/29 09:25:52;;;;;;;11.23;7.07;;;18.20;71.30;;;;;;6181117;23;20045;-64
2021/05/29 09:28:25;;;;;;;8.32;6.53;;;18.20;70.00;;;;;;6182666;23;20001;-64
2021/05/29 09:30:53;;;;;;;12.75;7.32;;;18.10;70.30;;;;;;6181644;23;20140;-64
2021/05/29 09:33:22;;;;;;;8.25;6.50;;;18.00;70.20;;;;;;6182172;23;20008;-70
2021/05/29 09:36:01;;;;;;;9.20;6.80;;;17.90;71.60;;;;;;6155083;23;20016;-66
2021/05/29 09:38:50;;;;;;;8.60;6.75;;;17.90;71.90;;;;;;6182780;23;20075;-64
2021/05/29 09:41:30;;;;;;;9.40;7.13;;;18.00;70.80;;;;;;6182153;23;20012;-64
2021/05/29 09:44:11;;;;;;;9.80;7.80;;;18.10;71.60;;;;;;6181440;23;20012;-67
2021/05/29 09:46:57;;;;;;;8.82;6.88;;;18.10;70.30;;;;;;6182101;23;20247;-72
2021/05/29 09:49:46;;;;;;;8.95;6.90;;;18.10;71.10;;;;;;6155544;23;20005;-73
2021/05/29 09:52:34;;;;;;;17.77;9.65;;;18.20;70.80;;;;;;6182589;23;19997;-71
2021/05/29 09:55:05;;;;;;;9.15;7.10;;;18.30;70.80;;;;;;6181797;23;20009;-72
2021/05/29 09:57:31;;;;;;;10.00;6.82;;;18.20;70.30;;;;;;6181646;23;20001;-68
2021/05/29 10:00:05;;;;;;;7.75;6.80;;;18.20;70.20;;;;;;6181716;23;20040;-71
2021/05/29 10:02:31;;;;;;;11.35;6.82;;;18.30;70.10;;;;;;6182356;23;20007;-68
2021/05/29 10:04:57;;;;;;;7.88;5.75;;;18.50;70.40;;;;;;6181257;23;20088;-73
2021/05/29 10:07:25;;;;;;;13.18;6.05;;;18.80;71.10;;;;;;6182517;23;20009;-68
2021/05/29 10:09:51;;;;;;;8.05;6.50;;;19.10;69.00;;;;;;6155360;23;20065;-70
2021/05/29 10:12:17;;;;;;;10.40;6.75;;;19.20;69.40;;;;;;6180979;23;19997;-69
2021/05/29 10:14:44;;;;;;;11.70;7.07;;;19.20;68.60;;;;;;6181087;23;20017;-70
2021/05/29 10:17:12;;;;;;;7.40;5.38;;;19.10;67.90;;;;;;6155476;23;19997;-70
2021/05/29 10:19:43;;;;;;;11.10;6.72;;;18.90;69.10;;;;;;6181042;23;20005;-66
2021/05/29 10:22:15;;;;;;;9.05;6.93;;;18.80;69.10;;;;;;6182512;23;20005;-66
2021/05/29 10:24:41;;;;;;;6.85;5.50;;;18.90;67.70;;;;;;6178006;23;20017;-66
2021/05/29 10:27:10;;;;;;;9.70;5.65;;;18.90;68.00;;;;;;6155699;23;20001;-62
2021/05/29 10:29:36;;;;;;;11.25;6.53;;;19.10;69.00;;;;;;6181927;23;20116;-64
2021/05/29 10:32:15;;;;;;;6.82;5.35;;;19.50;66.90;;;;;;6180983;23;20418;-66
2021/05/29 10:35:05;;;;;;;8.35;5.43;;;19.70;65.00;;;;;;6180678;23;20041;-66
2021/05/29 10:37:37;;;;;;;7.50;4.82;;;19.60;65.90;;;;;;6180827;23;20031;-67
2021/05/29 10:40:12;;;;;;;7.13;4.88;;;19.40;64.40;;;;;;6181210;23;20005;-69
2021/05/29 10:42:37;;;;;;;9.00;5.20;;;19.30;64.90;;;;;;6155084;23;20008;-66
2021/05/29 10:45:21;;;;;;;6.78;4.43;;;19.30;66.20;;;;;;6180535;23;19996;-63
2021/05/29 10:48:04;;;;;;;7.93;4.55;;;19.50;65.60;;;;;;6181028;23;20087;-64
2021/05/29 10:50:55;;;;;;;7.47;4.55;;;19.50;65.40;;;;;;6181964;23;20005;-65
2021/05/29 10:53:49;;;;;;;5.50;4.80;;;19.60;65.90;;;;;;6156469;23;20043;-63
2021/05/29 10:56:15;;;;;;;7.40;4.55;;;19.50;64.40;;;;;;6182286;23;20020;-65
2021/05/29 10:59:00;;;;;;;6.85;4.65;;;19.50;65.80;;;;;;6181799;23;20009;-73
2021/05/29 11:01:32;;;;;;;5.40;4.80;;;19.60;65.50;;;;;;6183163;23;19997;-64
2021/05/29 11:04:24;;;;;;;6.60;4.38;;;19.80;64.30;;;;;;6182017;23;20005;-67
2021/05/29 11:06:52;;;;;;;6.05;5.18;;;19.80;64.10;;;;;;6178029;23;20001;-67
2021/05/29 11:09:30;;;;;;;7.43;5.07;;;19.70;64.80;;;;;;6182652;23;20028;-67
2021/05/29 11:12:00;;;;;;;8.70;5.45;;;19.50;65.80;;;;;;6182864;23;20012;-69
2021/05/29 11:14:28;;;;;;;10.52;5.28;;;19.30;65.30;;;;;;6183004;23;20016;-64
2021/05/29 11:16:54;;;;;;;7.78;5.70;;;19.00;65.10;;;;;;6182846;23;20008;-64
2021/05/29 11:19:21;;;;;;;6.93;5.38;;;18.70;66.50;;;;;;6182115;23;20058;-66
2021/05/29 11:22:11;;;;;;;6.68;4.40;;;18.70;66.90;;;;;;6183302;23;19997;-65
2021/05/29 11:24:49;;;;;;;6.38;4.15;;;19.00;65.80;;;;;;6182869;23;20013;-65
2021/05/29 11:27:22;;;;;;;6.20;4.68;;;19.20;64.30;;;;;;6183529;23;20422;-67
2021/05/29 11:30:19;;;;;;;7.35;5.50;;;19.20;64.60;;;;;;6156704;23;20423;-63
2021/05/29 11:35:47;;;;;;;13.38;5.60;;;18.80;65.80;;;;;;6181682;23;20032;-64
2021/05/29 11:38:16;;;;;;;12.23;5.22;;;18.50;66.40;;;;;;6183606;23;20001;-66
2021/05/29 11:40:59;;;;;;;7.20;4.78;;;18.30;67.10;;;;;;6181950;23;20056;-62
2021/05/29 11:43:48;;;;;;;6.80;4.70;;;18.20;67.50;;;;;;6183257;23;20005;-63
2021/05/29 11:46:20;;;;;;;6.40;4.60;;;18.40;66.90;;;;;;6183205;23;20038;-63
2021/05/29 11:49:19;;;;;;;6.35;4.15;;;18.80;67.30;;;;;;6182133;23;20029;-72
2021/05/29 11:51:46;;;;;;;4.65;3.80;;;19.20;67.30;;;;;;6108227;23;20001;-68
2021/05/29 11:54:18;;;;;;;5.50;3.88;;;19.50;65.80;;;;;;6182639;23;20015;-66
2021/05/29 11:56:49;;;;;;;6.82;5.03;;;19.50;65.40;;;;;;6182964;23;20422;-71
2021/05/29 11:59:23;;;;;;;5.68;4.25;;;19.10;63.90;;;;;;6183228;23;20009;-71
2021/05/29 12:01:52;;;;;;;6.43;3.83;;;18.80;65.20;;;;;;6182176;23;20001;-71
2021/05/29 12:04:21;;;;;;;4.97;4.15;;;18.80;65.80;;;;;;6182603;23;20029;-70
2021/05/29 12:06:57;;;;;;;8.18;4.20;;;19.00;65.60;;;;;;6182933;23;20076;-71
2021/05/29 12:09:30;;;;;;;5.15;3.60;;;19.30;65.60;;;;;;6181942;23;20016;-72
2021/05/29 12:12:01;;;;;;;7.60;3.78;;;19.60;63.90;;;;;;6182272;23;19997;-70
2021/05/29 12:14:31;;;;;;;6.25;3.85;;;19.50;63.90;;;;;;6182855;23;20064;-71
2021/05/29 12:17:02;;;;;;;7.00;4.03;;;19.40;64.10;;;;;;6182140;23;20419;-69
2021/05/29 12:19:39;;;;;;;6.47;3.80;;;19.10;64.60;;;;;;6183393;23;20009;-74
2021/05/29 12:22:07;;;;;;;7.72;3.72;;;19.00;65.50;;;;;;6182638;23;20059;-64
2021/05/29 12:24:38;;;;;;;5.10;3.22;;;19.00;65.20;;;;;;6180514;23;20385;-67
2021/05/29 12:27:05;;;;;;;6.90;3.15;;;19.20;65.30;;;;;;6182673;23;20323;-64
2021/05/29 12:29:30;;;;;;;5.30;3.97;;;19.50;64.70;;;;;;6182134;23;20001;-61
2021/05/29 12:32:00;;;;;;;4.28;3.67;;;19.80;63.30;;;;;;6183101;23;20028;-64
2021/05/29 12:34:27;;;;;;;5.93;4.25;;;19.80;62.70;;;;;;6181639;23;20389;-64
2021/05/29 12:36:57;;;;;;;10.38;5.63;;;19.70;63.60;;;;;;6181465;23;20005;-61
2021/05/29 12:39:40;;;;;;;6.50;4.40;;;19.60;64.00;;;;;;6182009;23;20041;-62
2021/05/29 12:42:28;;;;;;;6.18;3.90;;;19.40;63.60;;;;;;6182430;23;20001;-63
2021/05/29 12:45:01;;;;;;;7.00;3.95;;;19.10;64.90;;;;;;6181505;23;20005;-68
2021/05/29 12:47:30;;;;;;;4.95;3.72;;;19.10;64.60;;;;;;6182568;23;20378;-65
2021/05/29 12:49:57;;;;;;;5.95;4.45;;;19.40;64.40;;;;;;6181969;23;20001;-64
2021/05/29 12:52:28;;;;;;;6.97;4.45;;;19.70;64.10;;;;;;6131410;23;20012;-64
2021/05/29 12:54:55;;;;;;;6.68;3.83;;;19.80;62.60;;;;;;6181973;23;20020;-66
2021/05/29 12:57:23;;;;;;;7.22;4.00;;;19.80;62.80;;;;;;6156583;23;20088;-68
2021/05/29 12:59:49;;;;;;;5.68;3.85;;;19.50;63.50;;;;;;6181557;23;20004;-64
2021/05/29 13:07:21;;;;;;;7.95;3.72;;;19.50;63.30;;;;;;6182701;23;20011;-63
2021/05/29 13:08:24;;;;;;;6.13;3.50;;;19.80;62.60;;;;;;6183311;23;20016;-64
2021/05/29 13:10:57;;;;;;;4.55;3.90;;;20.10;62.80;;;;;;6181906;23;19998;-63